createdAt,value
2024-02-10T00:00:17.232Z,8.86
2024-02-10T00:02:46.512Z,8.84
2024-02-10T00:05:16.544Z,8.75
2024-02-10T00:07:47.164Z,8.82
2024-02-10T00:10:16.790Z,8.61
2024-02-10T00:12:46.267Z,8.67
2024-02-10T00:15:14.298Z,8.65
2024-02-10T00:17:42.314Z,8.65
2024-02-10T00:20:14.861Z,8.59
2024-02-10T00:22:42.775Z,8.82
2024-02-10T00:25:11.141Z,8.84
2024-02-10T00:27:41.767Z,8.82
2024-02-10T00:30:10.594Z,8.87
2024-02-10T00:32:38.988Z,9.00
2024-02-10T00:35:07.900Z,9.14
2024-02-10T00:37:36.546Z,9.11
2024-02-10T00:40:05.496Z,9.14
2024-02-10T00:42:33.315Z,9.10
2024-02-10T00:45:03.144Z,9.10
2024-02-10T00:47:30.994Z,9.08
2024-02-10T00:50:02.402Z,9.02
2024-02-10T00:52:30.537Z,8.82
2024-02-10T00:54:58.669Z,8.82
2024-02-10T00:57:30.105Z,8.79
2024-02-10T00:59:58.701Z,8.92
2024-02-10T01:02:27.851Z,8.75
2024-02-10T01:04:56.424Z,8.90
2024-02-10T01:07:26.406Z,8.94
2024-02-10T01:09:54.713Z,8.84
2024-02-10T01:14:51.875Z,8.78
2024-02-10T01:17:19.803Z,8.74
2024-02-10T01:19:50.854Z,8.70
2024-02-10T01:22:20.103Z,8.73
2024-02-10T01:24:48.044Z,8.70
2024-02-10T01:27:17.970Z,8.80
2024-02-10T01:29:48.255Z,8.75
2024-02-10T01:32:20.464Z,8.77
2024-02-10T01:34:50.781Z,8.70
2024-02-10T01:37:19.583Z,8.71
2024-02-10T01:39:47.667Z,8.70
2024-02-10T01:42:18.340Z,8.69
2024-02-10T01:44:46.479Z,8.69
2024-02-10T01:47:15.783Z,8.64
2024-02-10T01:49:44.131Z,8.75
2024-02-10T01:52:14.222Z,8.66
2024-02-10T01:54:44.871Z,8.75
2024-02-10T01:57:14.282Z,8.68
2024-02-10T01:59:43.396Z,8.67
2024-02-10T02:02:15.842Z,8.74
2024-02-10T02:04:46.058Z,8.79
2024-02-10T02:07:15.450Z,8.73
2024-02-10T02:09:44.410Z,8.60
2024-02-10T02:12:13.600Z,8.64
2024-02-10T02:14:42.922Z,8.65
2024-02-10T02:17:11.619Z,8.59
2024-02-10T02:19:42.066Z,8.62
2024-02-10T02:22:10.530Z,8.70
2024-02-10T02:24:40.377Z,8.75
2024-02-10T02:27:10.163Z,8.79
2024-02-10T02:29:38.234Z,8.83
2024-02-10T02:32:06.575Z,8.86
2024-02-10T02:34:34.585Z,8.74
2024-02-10T02:37:04.688Z,8.78
2024-02-10T02:39:35.203Z,8.75
2024-02-10T02:42:07.081Z,8.85
2024-02-10T02:44:35.373Z,8.89
2024-02-10T02:47:06.162Z,8.87
2024-02-10T02:49:35.112Z,8.95
2024-02-10T02:52:03.002Z,8.87
2024-02-10T02:54:32.693Z,8.96
2024-02-10T02:57:01.359Z,8.99
2024-02-10T02:59:30.714Z,8.92
2024-02-10T03:01:59.953Z,8.99
2024-02-10T03:04:27.874Z,8.99
2024-02-10T03:06:55.945Z,8.94
2024-02-10T03:09:24.150Z,8.99
2024-02-10T03:11:52.097Z,8.97
2024-02-10T03:14:19.876Z,9.03
2024-02-10T03:16:49.344Z,8.93
2024-02-10T03:19:17.292Z,8.94
2024-02-10T03:21:45.113Z,8.94
2024-02-10T03:24:12.901Z,8.96
2024-02-10T03:26:40.792Z,8.93
2024-02-10T03:29:11.044Z,8.91
2024-02-10T03:31:38.893Z,8.88
2024-02-10T03:34:08.243Z,8.92
2024-02-10T03:36:36.031Z,8.93
2024-02-10T03:39:08.554Z,8.89
2024-02-10T03:41:36.436Z,8.92
2024-02-10T03:44:04.156Z,8.92
2024-02-10T03:46:32.678Z,8.95
2024-02-10T03:51:31.797Z,8.94
2024-02-10T03:53:59.594Z,8.88
2024-02-10T03:56:28.502Z,8.93
2024-02-10T03:58:56.693Z,9.08
2024-02-10T04:01:24.628Z,9.02
2024-02-10T04:03:54.483Z,9.17
2024-02-10T04:06:24.930Z,9.26
2024-02-10T04:08:54.767Z,9.20
2024-02-10T04:11:24.919Z,9.13
2024-02-10T04:13:53.924Z,9.22
2024-02-10T04:16:22.123Z,9.18
2024-02-10T04:18:50.544Z,9.22
2024-02-10T04:21:18.689Z,9.27
2024-02-10T04:23:46.614Z,9.36
2024-02-10T04:26:16.560Z,9.31
2024-02-10T04:28:44.433Z,9.32
2024-02-10T04:31:14.578Z,9.28
2024-02-10T04:33:51.604Z,9.39
2024-02-10T04:36:21.873Z,9.43
2024-02-10T04:38:49.812Z,9.53
2024-02-10T04:41:19.967Z,9.56
2024-02-10T04:43:48.274Z,9.50
2024-02-10T04:46:18.230Z,9.43
2024-02-10T04:48:49.217Z,9.42
2024-02-10T04:51:17.138Z,9.39
2024-02-10T04:53:45.868Z,9.54
2024-02-10T04:56:19.592Z,9.58
2024-02-10T04:58:47.591Z,9.57
2024-02-10T05:01:19.737Z,9.37
2024-02-10T05:03:48.404Z,9.36
2024-02-10T05:06:16.451Z,9.43
2024-02-10T05:08:44.939Z,9.48
2024-02-10T05:11:12.807Z,9.49
2024-02-10T05:13:42.140Z,9.54
2024-02-10T05:16:11.351Z,9.61
2024-02-10T05:18:39.302Z,9.55
2024-02-10T05:21:07.453Z,9.60
2024-02-10T05:23:38.903Z,9.69
2024-02-10T05:26:06.778Z,9.71
2024-02-10T05:28:34.951Z,9.71
2024-02-10T05:31:05.458Z,9.75
2024-02-10T05:33:33.626Z,9.83
2024-02-10T05:36:01.596Z,9.80
2024-02-10T05:38:29.474Z,9.74
2024-02-10T05:40:57.374Z,9.70
2024-02-10T05:43:25.237Z,9.64
2024-02-10T05:45:53.259Z,9.67
2024-02-10T05:48:26.158Z,9.80
2024-02-10T05:50:55.440Z,9.93
2024-02-10T05:53:24.453Z,9.81
2024-02-10T05:55:54.218Z,9.74
2024-02-10T05:58:24.543Z,9.49
2024-02-10T06:00:54.182Z,9.49
2024-02-10T06:05:55.859Z,9.43
2024-02-10T06:08:25.085Z,9.57
2024-02-10T06:10:53.476Z,9.68
2024-02-10T06:13:21.541Z,9.61
2024-02-10T06:15:49.600Z,9.64
2024-02-10T06:18:18.086Z,9.56
2024-02-10T06:20:47.529Z,9.77
2024-02-10T06:23:17.669Z,9.74
2024-02-10T06:25:45.730Z,9.61
2024-02-10T06:28:13.684Z,9.63
2024-02-10T06:30:43.209Z,9.78
2024-02-10T06:33:11.325Z,9.91
2024-02-10T06:35:39.301Z,9.79
2024-02-10T06:38:11.458Z,9.79
2024-02-10T06:40:41.399Z,9.66
2024-02-10T06:43:13.268Z,9.80
2024-02-10T06:45:41.557Z,9.74
2024-02-10T06:48:12.801Z,9.79
2024-02-10T06:50:44.065Z,9.69
2024-02-10T06:53:15.271Z,9.70
2024-02-10T06:55:43.316Z,9.56
2024-02-10T06:58:12.997Z,9.46
2024-02-10T07:00:41.888Z,9.48
2024-02-10T07:03:09.980Z,9.56
2024-02-10T07:05:38.884Z,9.65
2024-02-10T07:08:07.898Z,9.81
2024-02-10T07:10:38.677Z,10.12
2024-02-10T07:13:09.099Z,9.96
2024-02-10T07:15:40.157Z,9.93
2024-02-10T07:18:10.591Z,9.83
2024-02-10T07:20:38.659Z,9.87
2024-02-10T07:23:07.018Z,9.85
2024-02-10T07:25:39.123Z,9.97
2024-02-10T07:28:10.419Z,10.04
2024-02-10T07:30:38.596Z,10.00
2024-02-10T07:33:12.452Z,10.09
2024-02-10T07:35:44.675Z,10.19
2024-02-10T07:38:12.838Z,10.02
2024-02-10T07:40:42.175Z,10.05
2024-02-10T07:43:13.727Z,10.11
2024-02-10T07:45:41.786Z,10.15
2024-02-10T07:48:10.036Z,10.28
2024-02-10T07:50:39.752Z,10.22
2024-02-10T07:53:12.095Z,10.08
2024-02-10T07:55:44.003Z,10.12
2024-02-10T07:58:13.751Z,10.27
2024-02-10T08:00:42.231Z,10.20
2024-02-10T08:03:12.845Z,10.42
2024-02-10T08:05:42.829Z,10.46
2024-02-10T08:08:11.640Z,10.54
2024-02-10T08:10:41.200Z,10.67
2024-02-10T08:13:10.069Z,10.80
2024-02-10T08:15:38.062Z,10.86
2024-02-10T08:18:10.335Z,10.93
2024-02-10T08:20:42.599Z,10.99
2024-02-10T08:23:13.532Z,10.98
2024-02-10T08:25:44.118Z,10.94
2024-02-10T08:28:12.454Z,10.96
2024-02-10T08:30:40.652Z,10.97
2024-02-10T08:33:08.557Z,10.93
2024-02-10T08:35:37.490Z,10.99
2024-02-10T08:38:06.098Z,11.13
2024-02-10T08:40:34.164Z,11.08
2024-02-10T08:43:03.437Z,11.17
2024-02-10T08:45:31.705Z,11.21
2024-02-10T08:48:01.658Z,11.14
2024-02-10T08:50:32.202Z,11.23
2024-02-10T08:53:00.380Z,11.16
2024-02-10T08:55:28.973Z,11.20
2024-02-10T08:57:59.984Z,11.44
2024-02-10T09:00:29.323Z,11.41
2024-02-10T09:02:57.957Z,11.49
2024-02-10T09:05:28.068Z,11.64
2024-02-10T09:07:56.316Z,11.67
2024-02-10T09:10:24.464Z,11.88
2024-02-10T09:12:52.491Z,11.74
2024-02-10T09:15:21.874Z,11.81
2024-02-10T09:17:52.411Z,11.96
2024-02-10T09:20:22.394Z,12.11
2024-02-10T09:22:50.641Z,12.18
2024-02-10T09:25:19.373Z,12.20
2024-02-10T09:27:48.244Z,12.15
2024-02-10T09:30:16.623Z,12.16
2024-02-10T09:32:47.064Z,12.05
2024-02-10T09:35:25.122Z,11.99
2024-02-10T09:37:56.290Z,12.12
2024-02-10T09:40:24.971Z,12.00
2024-02-10T09:43:01.771Z,11.93
2024-02-10T09:45:35.343Z,12.17
2024-02-10T09:48:05.582Z,12.20
2024-02-10T09:50:38.323Z,12.34
2024-02-10T09:53:06.937Z,12.67
2024-02-10T09:55:35.212Z,12.76
2024-02-10T09:58:05.322Z,12.56
2024-02-10T10:00:38.278Z,12.83
2024-02-10T10:03:07.057Z,12.91
2024-02-10T10:05:44.806Z,12.91
2024-02-10T10:08:13.172Z,13.00
2024-02-10T10:10:41.331Z,12.96
2024-02-10T10:13:10.199Z,12.93
2024-02-10T10:15:39.572Z,13.02
2024-02-10T10:18:15.560Z,13.01
2024-02-10T10:20:48.254Z,12.98
2024-02-10T10:23:16.924Z,12.86
2024-02-10T10:25:47.585Z,12.84
2024-02-10T10:28:17.268Z,12.73
2024-02-10T10:30:46.032Z,12.74
2024-02-10T10:33:15.227Z,12.58
2024-02-10T10:35:45.981Z,12.42
2024-02-10T10:38:16.308Z,12.54
2024-02-10T10:40:44.622Z,12.62
2024-02-10T10:43:15.725Z,12.91
2024-02-10T10:45:45.240Z,13.11
2024-02-10T10:48:13.493Z,13.14
2024-02-10T10:50:41.612Z,13.02
2024-02-10T10:53:10.874Z,12.80
2024-02-10T10:55:45.329Z,13.10
2024-02-10T10:58:18.260Z,13.20
2024-02-10T11:00:48.826Z,13.18
2024-02-10T11:03:18.367Z,13.24
2024-02-10T11:05:51.366Z,13.18
2024-02-10T11:08:27.142Z,13.17
2024-02-10T11:11:01.685Z,13.09
2024-02-10T11:13:31.330Z,13.10
2024-02-10T11:16:11.274Z,13.22
2024-02-10T11:18:40.147Z,13.14
2024-02-10T11:21:12.226Z,12.87
2024-02-10T11:23:40.091Z,13.11
2024-02-10T11:26:11.609Z,13.09
2024-02-10T11:28:39.850Z,13.06
2024-02-10T11:31:11.030Z,12.98
2024-02-10T11:33:41.285Z,13.06
2024-02-10T11:36:12.082Z,13.20
2024-02-10T11:38:40.204Z,13.26
2024-02-10T11:41:09.342Z,13.62
2024-02-10T11:43:37.472Z,13.52
2024-02-10T11:46:05.527Z,13.25
2024-02-10T11:48:33.287Z,13.38
2024-02-10T11:51:04.844Z,13.36
2024-02-10T11:53:33.693Z,13.43
2024-02-10T11:56:06.686Z,13.31
2024-02-10T11:58:37.726Z,13.32
2024-02-10T12:01:06.210Z,13.61
2024-02-10T12:03:34.258Z,13.82
2024-02-10T12:06:03.228Z,13.68
2024-02-10T12:08:32.165Z,13.85
2024-02-10T12:11:00.824Z,13.75
2024-02-10T12:13:29.444Z,13.68
2024-02-10T12:16:03.243Z,13.44
2024-02-10T12:18:31.672Z,13.54
2024-02-10T12:21:00.662Z,13.26
2024-02-10T12:23:30.543Z,13.29
2024-02-10T12:25:58.682Z,13.28
2024-02-10T12:28:26.607Z,13.11
2024-02-10T12:30:55.975Z,12.98
2024-02-10T12:33:25.568Z,12.95
2024-02-10T12:35:56.135Z,13.08
2024-02-10T12:38:26.411Z,12.85
2024-02-10T12:40:54.716Z,12.97
2024-02-10T12:43:25.014Z,13.10
2024-02-10T12:45:53.183Z,13.31
2024-02-10T12:48:21.876Z,13.41
2024-02-10T12:50:51.741Z,13.79
2024-02-10T12:53:20.062Z,13.96
2024-02-10T12:55:48.486Z,14.27
2024-02-10T12:58:21.044Z,14.21
2024-02-10T13:00:49.591Z,14.14
2024-02-10T13:03:20.896Z,14.48
2024-02-10T13:05:49.400Z,14.66
2024-02-10T13:08:19.028Z,14.74
2024-02-10T13:10:47.922Z,14.93
2024-02-10T13:13:15.976Z,15.00
2024-02-10T13:15:45.155Z,14.90
2024-02-10T13:18:15.282Z,14.54
2024-02-10T13:20:43.320Z,14.26
2024-02-10T13:23:11.131Z,13.93
2024-02-10T13:25:40.492Z,14.27
2024-02-10T13:28:13.009Z,13.99
2024-02-10T13:30:45.036Z,14.05
2024-02-10T13:33:13.985Z,14.07
2024-02-10T13:35:42.559Z,14.04
2024-02-10T13:38:28.222Z,13.80
2024-02-10T13:41:14.824Z,14.03
2024-02-10T13:44:00.921Z,13.73
2024-02-10T13:46:46.336Z,13.64
2024-02-10T13:49:31.798Z,13.78
2024-02-10T13:52:17.347Z,13.62
2024-02-10T13:55:02.719Z,13.51
2024-02-10T13:57:49.522Z,13.80
2024-02-10T14:00:30.232Z,14.04
2024-02-10T14:03:02.200Z,13.80
2024-02-10T14:05:48.698Z,13.81
2024-02-10T14:08:31.363Z,13.88
2024-02-10T14:11:01.451Z,13.84
2024-02-10T14:13:34.664Z,13.93
2024-02-10T14:16:07.161Z,14.06
2024-02-10T14:18:37.681Z,14.00
2024-02-10T14:21:13.333Z,13.72
2024-02-10T14:23:41.760Z,13.62
2024-02-10T14:26:16.405Z,13.62
2024-02-10T14:28:54.737Z,13.60
2024-02-10T14:31:24.072Z,13.42
2024-02-10T14:33:54.400Z,13.33
2024-02-10T14:36:50.175Z,13.49
2024-02-10T14:39:18.809Z,13.57
2024-02-10T14:41:46.963Z,13.49
2024-02-10T14:44:16.190Z,13.43
2024-02-10T14:46:46.100Z,13.38
2024-02-10T14:49:16.403Z,13.33
2024-02-10T14:51:44.712Z,13.50
2024-02-10T14:54:12.804Z,13.35
2024-02-10T14:56:41.530Z,13.38
2024-02-10T14:59:12.524Z,13.56
2024-02-10T15:01:42.485Z,13.56
2024-02-10T15:04:12.168Z,13.49
2024-02-10T15:06:41.882Z,13.25
2024-02-10T15:09:11.116Z,13.10
2024-02-10T15:11:39.257Z,12.82
2024-02-10T15:14:07.314Z,12.73
2024-02-10T15:16:35.470Z,12.69
2024-02-10T15:19:04.772Z,12.65
2024-02-10T15:21:38.516Z,12.65
2024-02-10T15:24:11.088Z,12.60
2024-02-10T15:26:40.911Z,12.59
2024-02-10T15:29:09.121Z,12.49
2024-02-10T15:31:37.093Z,12.51
2024-02-10T15:34:06.419Z,12.48
2024-02-10T15:36:38.179Z,12.47
2024-02-10T15:39:07.751Z,12.44
2024-02-10T15:41:38.636Z,12.48
2024-02-10T15:44:09.958Z,12.54
2024-02-10T15:46:42.201Z,12.45
2024-02-10T15:49:12.239Z,12.56
2024-02-10T15:51:41.369Z,12.44
2024-02-10T15:54:11.574Z,12.39
2024-02-10T15:56:43.538Z,12.20
2024-02-10T15:59:12.954Z,12.28
2024-02-10T16:01:41.676Z,12.15
2024-02-10T16:04:12.595Z,12.11
2024-02-10T16:06:45.218Z,12.01
2024-02-10T16:09:13.974Z,12.09
2024-02-10T16:11:41.860Z,12.09
2024-02-10T16:14:09.963Z,12.06
2024-02-10T16:16:37.800Z,11.87
2024-02-10T16:19:07.929Z,11.86
2024-02-10T16:21:37.135Z,11.76
2024-02-10T16:24:06.353Z,11.65
2024-02-10T16:26:34.445Z,11.67
2024-02-10T16:29:02.281Z,11.73
2024-02-10T16:31:30.308Z,11.73
2024-02-10T16:34:00.062Z,11.74
2024-02-10T16:36:30.853Z,11.80
2024-02-10T16:39:01.840Z,11.78
2024-02-10T16:41:34.411Z,11.77
2024-02-10T16:44:04.952Z,11.79
2024-02-10T16:46:33.647Z,11.74
2024-02-10T16:49:01.824Z,11.69
2024-02-10T16:51:33.112Z,11.50
2024-02-10T16:54:07.090Z,11.38
2024-02-10T16:56:36.885Z,11.41
2024-02-10T16:59:06.029Z,11.26
2024-02-10T17:01:33.881Z,11.32
2024-02-10T17:04:04.806Z,11.19
2024-02-10T17:06:36.646Z,11.18
2024-02-10T17:09:09.721Z,11.13
2024-02-10T17:11:37.829Z,11.06
2024-02-10T17:14:06.101Z,11.02
2024-02-10T17:16:34.139Z,11.01
2024-02-10T17:19:03.245Z,10.99
2024-02-10T17:21:31.298Z,10.95
2024-02-10T17:23:59.116Z,10.89
2024-02-10T17:26:28.340Z,10.87
2024-02-10T17:29:02.663Z,10.85
2024-02-10T17:31:30.477Z,10.78
2024-02-10T17:33:58.410Z,10.69
2024-02-10T17:36:26.146Z,10.59
2024-02-10T17:38:56.837Z,10.56
2024-02-10T17:41:25.154Z,10.48
2024-02-10T17:43:54.237Z,10.53
2024-02-10T17:46:22.244Z,10.49
2024-02-10T17:48:50.149Z,10.43
2024-02-10T17:51:18.003Z,10.38
2024-02-10T17:53:45.772Z,10.43
2024-02-10T17:56:13.923Z,10.42
2024-02-10T17:58:41.786Z,10.42
2024-02-10T18:01:13.925Z,10.43
2024-02-10T18:03:41.828Z,10.49
2024-02-10T18:06:12.876Z,10.47
2024-02-10T18:08:41.866Z,10.46
2024-02-10T18:11:14.666Z,10.40
2024-02-10T18:13:49.357Z,10.44
2024-02-10T18:16:19.130Z,10.41
2024-02-10T18:18:49.745Z,10.35
2024-02-10T18:21:18.395Z,10.37
2024-02-10T18:23:46.383Z,10.36
2024-02-10T18:26:14.727Z,10.33
2024-02-10T18:28:43.004Z,10.37
2024-02-10T18:31:10.973Z,10.38
2024-02-10T18:33:40.359Z,10.36
2024-02-10T18:36:08.653Z,10.34
2024-02-10T18:38:36.439Z,10.35
2024-02-10T18:41:04.256Z,10.27
2024-02-10T18:43:32.307Z,10.29
2024-02-10T18:46:01.091Z,10.21
2024-02-10T18:48:29.161Z,10.23
2024-02-10T18:50:58.449Z,10.27
2024-02-10T18:53:26.229Z,10.17
2024-02-10T18:55:54.505Z,10.18
2024-02-10T18:58:22.688Z,10.30
2024-02-10T19:00:52.204Z,10.27
2024-02-10T19:03:20.167Z,10.21
2024-02-10T19:05:49.413Z,10.21
2024-02-10T19:08:18.801Z,10.18
2024-02-10T19:10:46.596Z,10.09
2024-02-10T19:13:16.180Z,10.05
2024-02-10T19:15:45.029Z,10.00
2024-02-10T19:18:15.272Z,10.08
2024-02-10T19:20:44.534Z,9.96
2024-02-10T19:23:12.615Z,9.97
2024-02-10T19:25:44.956Z,10.08
2024-02-10T19:28:13.430Z,10.05
2024-02-10T19:30:41.595Z,10.15
2024-02-10T19:33:09.616Z,10.07
2024-02-10T19:35:37.794Z,10.12
2024-02-10T19:38:17.002Z,10.09
2024-02-10T19:40:49.581Z,10.11
2024-02-10T19:43:17.470Z,10.05
2024-02-10T19:45:46.064Z,10.12
2024-02-10T19:48:14.123Z,10.08
2024-02-10T19:50:42.202Z,10.05
2024-02-10T19:53:10.099Z,10.08
2024-02-10T19:55:38.108Z,10.17
2024-02-10T19:58:09.080Z,10.14
2024-02-10T20:00:36.899Z,10.06
2024-02-10T20:03:05.635Z,10.25
2024-02-10T20:05:34.506Z,10.17
2024-02-10T20:08:02.391Z,10.21
2024-02-10T20:10:30.169Z,10.28
2024-02-10T20:12:57.957Z,10.28
2024-02-10T20:15:30.125Z,10.20
2024-02-10T20:18:03.541Z,10.28
2024-02-10T20:20:33.455Z,10.43
2024-02-10T20:23:01.858Z,10.40
2024-02-10T20:25:30.606Z,10.37
2024-02-10T20:27:58.385Z,10.35
2024-02-10T20:30:30.315Z,10.28
2024-02-10T20:32:58.366Z,10.31
2024-02-10T20:35:26.323Z,10.38
2024-02-10T20:37:55.171Z,10.32
2024-02-10T20:40:24.453Z,10.35
2024-02-10T20:42:54.429Z,10.33
2024-02-10T20:45:22.335Z,10.30
2024-02-10T20:47:52.165Z,10.30
2024-02-10T20:50:21.927Z,10.31
2024-02-10T20:52:51.825Z,10.42
2024-02-10T20:55:23.369Z,10.40
2024-02-10T20:57:51.920Z,10.44
2024-02-10T21:00:20.891Z,10.36
2024-02-10T21:02:49.564Z,10.30
2024-02-10T21:05:18.865Z,10.36
2024-02-10T21:07:46.874Z,10.29
2024-02-10T21:10:16.020Z,10.32
2024-02-10T21:12:43.807Z,10.33
2024-02-10T21:15:13.438Z,10.29
2024-02-10T21:17:41.651Z,10.31
2024-02-10T21:20:15.017Z,10.24
2024-02-10T21:22:47.627Z,10.23
2024-02-10T21:25:15.567Z,10.24
2024-02-10T21:27:44.312Z,10.18
2024-02-10T21:30:14.309Z,10.21
2024-02-10T21:32:44.065Z,10.22
2024-02-10T21:35:12.725Z,10.25
2024-02-10T21:37:41.769Z,10.30
2024-02-10T21:40:13.721Z,10.16
2024-02-10T21:42:41.929Z,10.15
2024-02-10T21:45:10.150Z,10.15
2024-02-10T21:47:38.611Z,10.18
2024-02-10T21:50:07.723Z,10.04
2024-02-10T21:52:38.117Z,10.02
2024-02-10T21:55:06.546Z,10.09
2024-02-10T21:57:37.161Z,10.17
2024-02-10T22:00:10.787Z,10.15
2024-02-10T22:02:40.125Z,10.02
2024-02-10T22:05:08.854Z,10.11
2024-02-10T22:07:37.093Z,10.10
2024-02-10T22:10:05.137Z,10.06
2024-02-10T22:12:32.903Z,10.19
2024-02-10T22:15:04.135Z,10.14
2024-02-10T22:17:32.409Z,10.08
2024-02-10T22:20:07.344Z,9.92
2024-02-10T22:22:36.312Z,9.94
2024-02-10T22:25:05.545Z,9.82
2024-02-10T22:27:34.013Z,9.94
2024-02-10T22:30:11.097Z,9.91
2024-02-10T22:32:39.353Z,9.87
2024-02-10T22:35:08.476Z,9.80
2024-02-10T22:37:36.962Z,9.84
2024-02-10T22:40:06.472Z,9.83
2024-02-10T22:42:36.812Z,9.95
2024-02-10T22:45:07.363Z,9.93
2024-02-10T22:47:35.314Z,9.89
2024-02-10T22:50:05.302Z,9.92
2024-02-10T22:52:35.575Z,9.82
2024-02-10T22:55:07.486Z,9.94
2024-02-10T22:57:35.300Z,9.93
2024-02-10T23:00:08.232Z,9.86
2024-02-10T23:02:37.355Z,9.91
2024-02-10T23:05:06.901Z,9.98
2024-02-10T23:07:35.058Z,10.06
2024-02-10T23:10:03.513Z,10.02
2024-02-10T23:12:34.295Z,10.06
2024-02-10T23:15:08.082Z,10.20
2024-02-10T23:17:38.959Z,10.20
2024-02-10T23:20:12.225Z,10.02
2024-02-10T23:22:40.147Z,9.97
2024-02-10T23:25:09.207Z,9.96
2024-02-10T23:27:37.215Z,10.02
2024-02-10T23:30:05.504Z,9.95
2024-02-10T23:32:33.385Z,10.05
2024-02-10T23:35:02.556Z,10.11
2024-02-10T23:37:30.907Z,10.05
2024-02-10T23:40:00.255Z,10.11
2024-02-10T23:42:28.236Z,10.15
2024-02-10T23:44:56.666Z,10.18
2024-02-10T23:47:25.461Z,10.12
2024-02-10T23:49:57.474Z,10.16
2024-02-10T23:52:31.386Z,10.09
2024-02-10T23:54:59.195Z,10.15
2024-02-10T23:57:26.994Z,10.05
2024-02-10T23:59:58.539Z,10.00
